Time;durP1;ratioP1;P1;durP2;ratioP2;P2;SDS_P1;SDS_P2;PMS_P1;PMS_P2;Temp;Humidity;BMP_temperature;BMP_pressure;BME280_temperature;BME280_humidity;BME280_pressure;Samples;Min_cycle;Max_cycle;Signal;HPM_P1;HPM_P2
2023/09/19 00:00:13;;;;;;;;;;;14.00;99.90;;;;;;5036443;28;19996;-68
2023/09/19 00:02:39;;;;;;;;;;;14.00;99.90;;;;;;5035199;28;19949;-72
2023/09/19 00:05:05;;;;;;;;;;;14.00;99.90;;;;;;5033725;28;20329;-69
2023/09/19 00:07:30;;;;;;;;;;;14.00;99.90;;;;;;5035563;28;19913;-69
2023/09/19 00:09:56;;;;;;;;;;;14.10;99.90;;;;;;5035613;28;19909;-68
2023/09/19 00:12:22;;;;;;;;;;;14.10;99.90;;;;;;5033518;28;19913;-69
2023/09/19 00:14:47;;;;;;;;;;;14.10;99.90;;;;;;5035428;28;20011;-69
2023/09/19 00:17:13;;;;;;;;;;;14.10;99.90;;;;;;5034572;28;19952;-69
2023/09/19 00:19:38;;;;;;;;;;;14.10;99.90;;;;;;5035036;28;19917;-75
2023/09/19 00:22:04;;;;;;;;;;;14.00;99.90;;;;;;5035280;28;19912;-69
2023/09/19 00:24:30;;;;;;;;;;;14.00;99.90;;;;;;5032555;28;19964;-68
2023/09/19 00:26:58;;;;;;;;;;;14.00;99.90;;;;;;5022216;28;20011;-68
2023/09/19 00:29:27;;;;;;;;;;;14.00;99.90;;;;;;5026731;28;19917;-69
2023/09/19 00:31:53;;;;;;;;;;;14.00;99.90;;;;;;5031311;28;19909;-68
2023/09/19 00:34:20;;;;;;;;;;;14.10;99.90;;;;;;5032885;28;20339;-68
2023/09/19 00:36:45;;;;;;;;;;;14.10;99.90;;;;;;5029594;28;19919;-69
2023/09/19 00:39:11;;;;;;;;;;;14.10;99.90;;;;;;5034892;28;19913;-68
2023/09/19 00:41:38;;;;;;;;;;;14.00;99.90;;;;;;5039238;28;19909;-68
2023/09/19 00:44:04;;;;;;;;;;;14.00;99.90;;;;;;5039835;28;20295;-68
2023/09/19 00:46:30;;;;;;;;;;;14.10;99.90;;;;;;5032044;28;19916;-69
2023/09/19 00:48:56;;;;;;;;;;;14.00;99.90;;;;;;5034686;28;19996;-68
2023/09/19 00:51:22;;;;;;;;;;;14.00;99.90;;;;;;5034619;28;19974;-69
2023/09/19 00:53:48;;;;;;;;;;;14.00;99.90;;;;;;5032213;28;20316;-69
2023/09/19 00:56:18;;;;;;;;;;;14.00;99.90;;;;;;5028398;28;19916;-68
2023/09/19 00:58:44;;;;;;;;;;;14.00;99.90;;;;;;5046154;28;19916;-69
2023/09/19 01:01:11;;;;;;;;;;;14.00;99.90;;;;;;5044195;28;19991;-68
2023/09/19 01:03:37;;;;;;;;;;;14.00;99.90;;;;;;5035392;28;19948;-68
2023/09/19 01:06:03;;;;;;;;;;;14.00;99.90;;;;;;5029257;28;20019;-68
2023/09/19 01:08:29;;;;;;;;;;;14.10;99.90;;;;;;5030451;28;19920;-69
2023/09/19 01:10:59;;;;;;;;;;;14.10;99.90;;;;;;5032284;28;20455;-68
2023/09/19 01:13:30;;;;;;;;;;;14.10;99.90;;;;;;5048445;28;19905;-68
2023/09/19 01:16:06;;;;;;;;;;;14.10;99.90;;;;;;5039226;28;19909;-69
2023/09/19 01:18:52;;;;;;;;;;;14.10;99.90;;;;;;5029924;28;19909;-68
2023/09/19 01:21:28;;;;;;;;;;;14.10;99.90;;;;;;5052389;28;19962;-68
2023/09/19 01:23:53;;;;;;;;;;;14.10;99.90;;;;;;5031097;28;19920;-68
2023/09/19 01:26:31;;;;;;;;;;;14.10;99.90;;;;;;5037483;28;19916;-68
2023/09/19 01:29:15;;;;;;;;;;;14.10;99.90;;;;;;5040034;28;19909;-68
2023/09/19 01:31:42;;;;;;;;;;;14.10;99.90;;;;;;5033324;28;20188;-68
2023/09/19 01:34:08;;;;;;;;;;;14.20;99.90;;;;;;5026397;28;19963;-68
2023/09/19 01:36:35;;;;;;;;;;;14.20;99.90;;;;;;5042600;28;19909;-68
2023/09/19 01:39:13;;;;;;;;;;;14.20;99.90;;;;;;5032076;28;19982;-68
2023/09/19 01:41:38;;;;;;;;;;;14.20;99.90;;;;;;5034434;28;20522;-68
2023/09/19 01:44:05;;;;;;;;;;;14.20;99.90;;;;;;5028772;28;19913;-68
2023/09/19 01:46:37;;;;;;;;;;;14.20;99.90;;;;;;5034422;28;19913;-68
2023/09/19 01:49:03;;;;;;;;;;;14.20;99.90;;;;;;5035519;28;19909;-69
2023/09/19 01:51:49;;;;;;;;;;;14.20;99.90;;;;;;5035542;28;19917;-68
2023/09/19 01:54:18;;;;;;;;;;;14.20;99.90;;;;;;5043269;28;19912;-78
2023/09/19 01:57:03;;;;;;;;;;;14.20;99.90;;;;;;5042715;28;19908;-68
2023/09/19 01:59:33;;;;;;;;;;;14.20;99.90;;;;;;5033517;28;19917;-68
2023/09/19 02:01:59;;;;;;;;;;;14.20;99.90;;;;;;5030901;28;20287;-68
2023/09/19 02:04:26;;;;;;;;;;;14.20;99.90;;;;;;5033257;28;19931;-68
2023/09/19 02:06:53;;;;;;;;;;;14.20;99.90;;;;;;5031014;28;19912;-69
2023/09/19 02:09:18;;;;;;;;;;;14.20;99.90;;;;;;5027214;28;20300;-86
2023/09/19 02:11:44;;;;;;;;;;;14.20;99.90;;;;;;5034966;28;19915;-68
2023/09/19 02:14:09;;;;;;;;;;;14.20;99.90;;;;;;5052953;28;19913;-68
2023/09/19 02:16:35;;;;;;;;;;;14.20;99.90;;;;;;5033528;28;20211;-68
2023/09/19 02:19:05;;;;;;;;;;;14.20;99.90;;;;;;5038321;28;20300;-69
2023/09/19 02:21:30;;;;;;;;;;;14.20;99.90;;;;;;5039599;28;19913;-69
2023/09/19 02:23:56;;;;;;;;;;;14.20;99.90;;;;;;5054354;28;20046;-69
2023/09/19 02:26:23;;;;;;;;;;;14.20;99.90;;;;;;5036409;28;19917;-69
2023/09/19 02:28:48;;;;;;;;;;;14.10;99.90;;;;;;5024292;28;19932;-69
2023/09/19 02:31:16;;;;;;;;;;;14.10;99.90;;;;;;5037335;28;19910;-68
2023/09/19 02:33:42;;;;;;;;;;;14.10;99.90;;;;;;5040691;28;19913;-68
2023/09/19 02:36:08;;;;;;;;;;;14.10;99.90;;;;;;5049014;28;20261;-69
2023/09/19 02:38:34;;;;;;;;;;;14.10;99.90;;;;;;5031114;28;19909;-69
2023/09/19 02:40:59;;;;;;;;;;;14.10;99.90;;;;;;5036537;28;19955;-68
2023/09/19 02:43:25;;;;;;;;;;;14.10;99.90;;;;;;5037002;28;19966;-85
2023/09/19 02:45:53;;;;;;;;;;;14.10;99.90;;;;;;5040324;28;19909;-69
2023/09/19 02:48:18;;;;;;;;;;;14.10;99.90;;;;;;5035778;28;19909;-68
2023/09/19 02:50:44;;;;;;;;;;;14.10;99.90;;;;;;5036547;28;19958;-69
2023/09/19 02:53:12;;;;;;;;;;;14.10;99.90;;;;;;5033553;28;19916;-69
2023/09/19 02:55:40;;;;;;;;;;;14.20;99.90;;;;;;5036110;28;19909;-69
2023/09/19 02:58:07;;;;;;;;;;;14.20;99.90;;;;;;5037283;28;20004;-68
2023/09/19 03:00:35;;;;;;;;;;;14.10;99.90;;;;;;5052224;28;19932;-69
2023/09/19 03:03:02;;;;;;;;;;;14.10;99.90;;;;;;5050264;28;19913;-69
2023/09/19 03:05:30;;;;;;;;;;;14.10;99.90;;;;;;5033631;28;20228;-69
2023/09/19 03:07:56;;;;;;;;;;;14.10;99.90;;;;;;5038319;28;19920;-84
2023/09/19 03:10:22;;;;;;;;;;;14.10;99.90;;;;;;5057430;28;19905;-69
2023/09/19 03:12:47;;;;;;;;;;;14.10;99.90;;;;;;5033044;28;19916;-68
2023/09/19 03:15:15;;;;;;;;;;;14.10;99.90;;;;;;5035507;28;19913;-69
2023/09/19 03:17:44;;;;;;;;;;;14.10;99.90;;;;;;5029142;28;19967;-68
2023/09/19 03:20:12;;;;;;;;;;;14.20;99.90;;;;;;5043882;28;20296;-68
2023/09/19 03:22:38;;;;;;;;;;;14.20;99.90;;;;;;5045586;28;19908;-68
2023/09/19 03:25:07;;;;;;;;;;;14.20;99.90;;;;;;5043319;28;19919;-69
2023/09/19 03:27:33;;;;;;;;;;;14.20;99.90;;;;;;5039124;28;20008;-68
2023/09/19 03:29:59;;;;;;;;;;;14.30;99.90;;;;;;5050509;28;20201;-68
2023/09/19 03:32:24;;;;;;;;;;;14.30;99.90;;;;;;5056874;28;20095;-73
2023/09/19 03:34:50;;;;;;;;;;;14.30;99.90;;;;;;5045082;28;19920;-68
2023/09/19 03:37:16;;;;;;;;;;;14.30;99.90;;;;;;5040465;28;20285;-68
2023/09/19 03:39:41;;;;;;;;;;;14.30;99.90;;;;;;5036427;28;20300;-68
2023/09/19 03:42:07;;;;;;;;;;;14.40;99.90;;;;;;5036995;28;19912;-85
2023/09/19 03:44:32;;;;;;;;;;;14.30;99.90;;;;;;5030495;28;19924;-70
2023/09/19 03:46:58;;;;;;;;;;;14.30;99.90;;;;;;5040977;28;20251;-68
2023/09/19 03:49:24;;;;;;;;;;;14.40;99.90;;;;;;5036868;28;19996;-68
2023/09/19 03:51:49;;;;;;;;;;;14.40;99.90;;;;;;5028119;28;20008;-68
2023/09/19 03:54:16;;;;;;;;;;;14.40;99.90;;;;;;5031511;28;20196;-68
2023/09/19 03:56:43;;;;;;;;;;;14.40;99.90;;;;;;5036596;28;20249;-68
2023/09/19 03:59:09;;;;;;;;;;;14.40;99.90;;;;;;5052924;28;20366;-83
2023/09/19 04:01:35;;;;;;;;;;;14.40;99.90;;;;;;5056777;28;19905;-69
2023/09/19 04:04:07;;;;;;;;;;;14.40;99.90;;;;;;5030539;28;20327;-68
2023/09/19 04:06:36;;;;;;;;;;;14.40;99.90;;;;;;5039768;28;19980;-68
2023/09/19 04:09:03;;;;;;;;;;;14.30;99.90;;;;;;5046828;28;19909;-68
2023/09/19 04:11:29;;;;;;;;;;;14.30;99.90;;;;;;5056357;28;19916;-69
2023/09/19 04:13:54;;;;;;;;;;;14.30;99.90;;;;;;5056238;28;20250;-69
2023/09/19 04:16:20;;;;;;;;;;;14.30;99.90;;;;;;5039696;28;20303;-68
2023/09/19 04:18:46;;;;;;;;;;;14.30;99.90;;;;;;5042867;28;19913;-68
2023/09/19 04:21:11;;;;;;;;;;;14.20;99.90;;;;;;5034823;28;19908;-68
2023/09/19 04:23:37;;;;;;;;;;;14.20;99.90;;;;;;5047980;28;20211;-68
2023/09/19 04:26:05;;;;;;;;;;;14.20;99.90;;;;;;5039458;28;19920;-69
2023/09/19 04:28:32;;;;;;;;;;;14.20;99.90;;;;;;5048562;28;19913;-68
2023/09/19 04:30:58;;;;;;;;;;;14.20;99.90;;;;;;5047210;28;19991;-68
2023/09/19 04:33:24;;;;;;;;;;;14.10;99.90;;;;;;5036560;28;20013;-68
2023/09/19 04:35:50;;;;;;;;;;;14.10;99.90;;;;;;5040683;28;19963;-67
2023/09/19 04:38:17;;;;;;;;;;;14.10;99.90;;;;;;5045737;28;19917;-67
2023/09/19 04:40:43;;;;;;;;;;;14.10;99.90;;;;;;5043916;28;20366;-68
2023/09/19 04:43:09;;;;;;;;;;;14.20;99.90;;;;;;5038451;28;19917;-68
2023/09/19 04:45:34;;;;;;;;;;;14.20;99.90;;;;;;5033326;28;19913;-68
2023/09/19 04:48:00;;;;;;;;;;;14.20;99.90;;;;;;5034139;28;19928;-68
2023/09/19 04:50:27;;;;;;;;;;;14.30;99.90;;;;;;5035756;28;19913;-81
2023/09/19 04:52:53;;;;;;;;;;;14.30;99.90;;;;;;5039233;28;19905;-68
2023/09/19 04:55:19;;;;;;;;;;;14.30;99.90;;;;;;5034041;28;20326;-67
2023/09/19 04:57:45;;;;;;;;;;;14.30;99.90;;;;;;5034528;28;19962;-68
2023/09/19 05:00:13;;;;;;;;;;;14.30;99.90;;;;;;5033279;28;20248;-68
2023/09/19 05:02:39;;;;;;;;;;;14.30;99.90;;;;;;5044130;28;19909;-68
2023/09/19 05:05:06;;;;;;;;;;;14.30;99.90;;;;;;5033554;28;19920;-68
2023/09/19 05:07:32;;;;;;;;;;;14.30;99.90;;;;;;5035178;28;19916;-69
2023/09/19 05:09:57;;;;;;;;;;;14.40;99.90;;;;;;5040205;28;20212;-69
2023/09/19 05:12:23;;;;;;;;;;;14.40;99.90;;;;;;5034872;28;19912;-68
2023/09/19 05:14:48;;;;;;;;;;;14.40;99.90;;;;;;5031112;28;19913;-68
2023/09/19 05:17:16;;;;;;;;;;;14.40;99.90;;;;;;5033490;28;19909;-68
2023/09/19 05:19:42;;;;;;;;;;;14.40;99.90;;;;;;5035480;28;19963;-69
2023/09/19 05:22:08;;;;;;;;;;;14.30;99.90;;;;;;5036982;28;19908;-69
2023/09/19 05:24:33;;;;;;;;;;;14.30;99.90;;;;;;5039213;28;19913;-82
2023/09/19 05:26:59;;;;;;;;;;;14.30;99.90;;;;;;5034033;28;19999;-68
2023/09/19 05:29:25;;;;;;;;;;;14.20;99.90;;;;;;5027057;28;20005;-68
2023/09/19 05:31:50;;;;;;;;;;;14.30;99.90;;;;;;5032967;28;19913;-69
2023/09/19 05:34:16;;;;;;;;;;;14.30;99.90;;;;;;5035009;28;20299;-69
2023/09/19 05:36:42;;;;;;;;;;;14.30;99.90;;;;;;5034141;28;20004;-68
2023/09/19 05:39:09;;;;;;;;;;;14.30;99.90;;;;;;5029739;28;19955;-68
2023/09/19 05:41:39;;;;;;;;;;;14.30;99.90;;;;;;5029296;28;20321;-70
2023/09/19 05:44:06;;;;;;;;;;;14.30;99.90;;;;;;5034889;28;19909;-67
2023/09/19 05:46:32;;;;;;;;;;;14.30;99.90;;;;;;5033549;28;19909;-68
2023/09/19 05:48:58;;;;;;;;;;;14.30;99.90;;;;;;5049115;28;19911;-67
2023/09/19 05:51:23;;;;;;;;;;;14.30;99.90;;;;;;5044615;28;20011;-69
2023/09/19 05:53:49;;;;;;;;;;;14.30;99.90;;;;;;5031085;28;19913;-68
2023/09/19 05:56:15;;;;;;;;;;;14.30;99.90;;;;;;5032930;28;20406;-69
2023/09/19 05:58:44;;;;;;;;;;;14.30;99.90;;;;;;5027546;28;19910;-80
2023/09/19 06:01:09;;;;;;;;;;;14.30;99.90;;;;;;5036785;28;20308;-69
2023/09/19 06:03:35;;;;;;;;;;;14.30;99.90;;;;;;5037716;28;19924;-69
2023/09/19 06:06:01;;;;;;;;;;;14.30;99.90;;;;;;5048687;28;20310;-68
2023/09/19 06:08:27;;;;;;;;;;;14.30;99.90;;;;;;5045257;28;20374;-69
2023/09/19 06:10:53;;;;;;;;;;;14.30;99.90;;;;;;5035777;28;19911;-68
2023/09/19 06:13:19;;;;;;;;;;;14.30;99.90;;;;;;5043072;28;19955;-69
2023/09/19 06:15:46;;;;;;;;;;;14.30;99.90;;;;;;5031070;28;20304;-71
2023/09/19 06:18:19;;;;;;;;;;;14.40;99.90;;;;;;5052379;28;19905;-68
2023/09/19 06:20:46;;;;;;;;;;;14.40;99.90;;;;;;5038735;28;19955;-68
2023/09/19 06:23:11;;;;;;;;;;;14.50;99.90;;;;;;5051673;28;19996;-68
2023/09/19 06:25:37;;;;;;;;;;;14.50;99.90;;;;;;5037711;28;20276;-68
2023/09/19 06:28:05;;;;;;;;;;;14.50;99.90;;;;;;5035950;28;20003;-67
2023/09/19 06:30:31;;;;;;;;;;;14.50;99.90;;;;;;5038503;28;19988;-69
2023/09/19 06:32:57;;;;;;;;;;;14.60;99.90;;;;;;5049950;28;20291;-81
2023/09/19 06:35:23;;;;;;;;;;;14.60;99.90;;;;;;5035091;28;19913;-68
2023/09/19 06:37:49;;;;;;;;;;;14.70;99.90;;;;;;5037147;28;19913;-68
2023/09/19 06:40:15;;;;;;;;;;;14.70;99.90;;;;;;5036542;28;19913;-69
2023/09/19 06:42:41;;;;;;;;;;;14.70;99.90;;;;;;5049232;28;19915;-66
2023/09/19 06:45:07;;;;;;;;;;;14.80;99.90;;;;;;5032824;28;20008;-67
2023/09/19 06:47:32;;;;;;;;;;;14.80;99.90;;;;;;5036667;28;20331;-66
2023/09/19 06:49:58;;;;;;;;;;;14.80;99.90;;;;;;5035866;28;19905;-81
2023/09/19 06:52:25;;;;;;;;;;;14.80;99.90;;;;;;5028245;28;19909;-67
2023/09/19 06:54:52;;;;;;;;;;;14.90;99.90;;;;;;5039053;28;20003;-67
2023/09/19 06:57:18;;;;;;;;;;;14.90;99.90;;;;;;5032535;28;19984;-69
2023/09/19 06:59:44;;;;;;;;;;;14.90;99.90;;;;;;5037159;28;20344;-67
2023/09/19 07:02:10;;;;;;;;;;;15.00;99.90;;;;;;5041307;28;20000;-66
2023/09/19 07:04:36;;;;;;;;;;;15.10;99.90;;;;;;5036950;28;20056;-68
2023/09/19 07:07:02;;;;;;;;;;;15.10;99.90;;;;;;5034915;28;20292;-68
2023/09/19 07:09:27;;;;;;;;;;;15.20;99.90;;;;;;5035073;28;20299;-80
2023/09/19 07:11:54;;;;;;;;;;;15.20;99.90;;;;;;5035881;28;20209;-69
2023/09/19 07:14:19;;;;;;;;;;;15.30;99.90;;;;;;5036864;28;19913;-69
2023/09/19 07:16:47;;;;;;;;;;;15.30;99.90;;;;;;5036555;28;19912;-69
2023/09/19 07:19:15;;;;;;;;;;;15.40;99.90;;;;;;5036570;28;19909;-68
2023/09/19 07:21:40;;;;;;;;;;;15.50;99.90;;;;;;5035639;28;19913;-68
2023/09/19 07:24:07;;;;;;;;;;;15.50;99.90;;;;;;5038748;28;19913;-68
2023/09/19 07:26:34;;;;;;;;;;;15.50;99.90;;;;;;5044283;28;19925;-67
2023/09/19 07:28:59;;;;;;;;;;;15.60;99.90;;;;;;5040590;28;19912;-68
2023/09/19 07:31:27;;;;;;;;;;;15.60;99.90;;;;;;5050392;28;19924;-68
2023/09/19 07:33:53;;;;;;;;;;;15.70;99.90;;;;;;5049474;28;19916;-69
2023/09/19 07:36:19;;;;;;;;;;;15.70;99.90;;;;;;5040958;28;19955;-67
2023/09/19 07:38:45;;;;;;;;;;;15.90;99.90;;;;;;5049649;28;19909;-80
2023/09/19 07:41:11;;;;;;;;;;;16.00;99.90;;;;;;5051019;28;19915;-69
2023/09/19 07:43:38;;;;;;;;;;;16.10;99.90;;;;;;5038722;28;21106;-82
2023/09/19 07:46:08;;;;;;;;;;;16.20;99.90;;;;;;5047314;28;20000;-68
2023/09/19 07:48:38;;;;;;;;;;;16.20;99.90;;;;;;5040356;28;19932;-78
2023/09/19 07:51:07;;;;;;;;;;;16.30;99.90;;;;;;5044805;28;19909;-67
2023/09/19 07:53:37;;;;;;;;;;;16.40;99.90;;;;;;5042920;28;19966;-67
2023/09/19 07:56:06;;;;;;;;;;;16.50;99.90;;;;;;5042545;28;19909;-80
2023/09/19 07:58:33;;;;;;;;;;;16.70;99.90;;;;;;5040381;28;20223;-67
2023/09/19 08:01:09;;;;;;;;;;;16.70;99.90;;;;;;5041753;28;20315;-67
2023/09/19 08:03:34;;;;;;;;;;;16.80;99.90;;;;;;5040054;28;20011;-67
2023/09/19 08:06:00;;;;;;;;;;;17.00;99.90;;;;;;5045700;28;20011;-68
2023/09/19 08:08:26;;;;;;;;;;;17.10;99.90;;;;;;5046753;28;19967;-68
2023/09/19 08:10:56;;;;;;;;;;;17.20;99.90;;;;;;5045654;28;19951;-69
2023/09/19 08:13:25;;;;;;;;;;;17.40;99.90;;;;;;5043394;28;20296;-69
2023/09/19 08:15:50;;;;;;;;;;;17.50;99.90;;;;;;5043464;28;19909;-68
2023/09/19 08:18:17;;;;;;;;;;;17.60;99.90;;;;;;5041896;28;19917;-78
2023/09/19 08:20:43;;;;;;;;;;;17.60;99.90;;;;;;5046406;28;19911;-68
2023/09/19 08:23:08;;;;;;;;;;;17.70;99.90;;;;;;5047426;28;19932;-68
2023/09/19 08:25:34;;;;;;;;;;;17.70;99.90;;;;;;5046758;28;20374;-67
2023/09/19 08:28:01;;;;;;;;;;;17.70;99.90;;;;;;5050596;28;19966;-70
2023/09/19 08:30:30;;;;;;;;;;;17.80;99.90;;;;;;5038003;28;19916;-80
2023/09/19 08:32:59;;;;;;;;;;;17.80;99.90;;;;;;5042380;28;19920;-68
2023/09/19 08:35:25;;;;;;;;;;;17.80;99.90;;;;;;5048450;28;19909;-77
2023/09/19 08:37:51;;;;;;;;;;;17.70;99.90;;;;;;5033163;28;19909;-68
2023/09/19 08:40:17;;;;;;;;;;;17.70;99.90;;;;;;5034445;28;19981;-67
2023/09/19 08:42:50;;;;;;;;;;;17.80;99.90;;;;;;5040327;28;19913;-69
2023/09/19 08:45:16;;;;;;;;;;;17.90;99.90;;;;;;5029360;28;19970;-82
2023/09/19 08:48:02;;;;;;;;;;;18.00;99.90;;;;;;5037014;28;20003;-68
2023/09/19 08:50:28;;;;;;;;;;;18.00;99.90;;;;;;5038061;28;19916;-80
2023/09/19 08:52:55;;;;;;;;;;;18.00;99.90;;;;;;5047529;28;20299;-69
2023/09/19 08:55:23;;;;;;;;;;;18.10;99.90;;;;;;5044843;28;19913;-68
2023/09/19 08:57:49;;;;;;;;;;;18.10;99.90;;;;;;5028679;28;19913;-69
2023/09/19 09:00:18;;;;;;;;;;;18.20;99.90;;;;;;5038601;28;19912;-83
2023/09/19 09:02:45;;;;;;;;;;;18.20;99.90;;;;;;5047263;28;19980;-68
2023/09/19 09:05:11;;;;;;;;;;;18.20;99.90;;;;;;5038675;28;19924;-68
2023/09/19 09:07:40;;;;;;;;;;;18.00;99.90;;;;;;5037966;28;19916;-68
2023/09/19 09:10:06;;;;;;;;;;;17.90;99.90;;;;;;5037649;28;19936;-68
2023/09/19 09:12:32;;;;;;;;;;;17.90;99.90;;;;;;5040358;28;19909;-68
2023/09/19 09:14:58;;;;;;;;;;;17.80;99.90;;;;;;5046455;28;19911;-76
2023/09/19 09:17:24;;;;;;;;;;;17.70;99.90;;;;;;5041119;28;20266;-68
2023/09/19 09:19:53;;;;;;;;;;;17.60;99.90;;;;;;5039245;28;19913;-68
2023/09/19 09:22:21;;;;;;;;;;;17.50;99.90;;;;;;5039987;28;19905;-69
2023/09/19 09:25:01;;;;;;;;;;;17.50;99.90;;;;;;5042706;28;19963;-69
2023/09/19 09:27:26;;;;;;;;;;;17.40;99.90;;;;;;5041776;28;19979;-68
2023/09/19 09:29:54;;;;;;;;;;;17.30;99.90;;;;;;5043573;28;19908;-82
2023/09/19 09:32:21;;;;;;;;;;;17.40;99.90;;;;;;5047913;28;20561;-68
2023/09/19 09:34:49;;;;;;;;;;;17.30;99.90;;;;;;5045974;28;19911;-68
2023/09/19 09:37:15;;;;;;;;;;;17.30;99.90;;;;;;5051236;28;19942;-69
2023/09/19 09:39:50;;;;;;;;;;;17.20;99.90;;;;;;5045909;28;20227;-69
2023/09/19 09:42:46;;;;;;;;;;;17.10;99.90;;;;;;5036572;28;19919;-68
2023/09/19 09:45:12;;;;;;;;;;;17.00;99.90;;;;;;5040300;28;20230;-69
2023/09/19 09:47:41;;;;;;;;;;;17.00;99.90;;;;;;5040173;28;20264;-80
2023/09/19 09:50:16;;;;;;;;;;;17.20;99.90;;;;;;5049214;28;19909;-69
2023/09/19 09:52:46;;;;;;;;;;;17.20;99.90;;;;;;5039564;28;19916;-79
2023/09/19 09:55:12;;;;;;;;;;;17.20;99.90;;;;;;5042955;28;20298;-69
2023/09/19 09:57:44;;;;;;;;;;;17.30;99.90;;;;;;5040590;28;19927;-70
2023/09/19 10:02:40;;;;;;;;;;;17.60;99.90;;;;;;5046211;28;19959;-68
2023/09/19 10:05:28;;;;;;;;;;;17.70;99.90;;;;;;5051342;28;19967;-69
2023/09/19 10:07:59;;;;;;;;;;;17.70;99.90;;;;;;5047639;28;19909;-68
2023/09/19 10:10:29;;;;;;;;;;;17.70;99.90;;;;;;5044362;28;20306;-69
2023/09/19 10:13:02;;;;;;;;;;;17.70;99.90;;;;;;5040321;28;20280;-68
2023/09/19 10:15:31;;;;;;;;;;;17.80;99.90;;;;;;5030075;28;19916;-69
2023/09/19 10:17:59;;;;;;;;;;;17.90;99.90;;;;;;5043512;28;19909;-69
2023/09/19 10:20:37;;;;;;;;;;;18.10;99.90;;;;;;5039512;28;20039;-69
2023/09/19 10:23:13;;;;;;;;;;;18.20;99.90;;;;;;5044067;28;19908;-68
2023/09/19 10:25:43;;;;;;;;;;;18.30;99.90;;;;;;5031212;28;19940;-68
2023/09/19 10:28:13;;;;;;;;;;;18.40;99.90;;;;;;5043974;28;19909;-68
2023/09/19 10:30:47;;;;;;;;;;;18.50;99.90;;;;;;5041546;28;19966;-68
2023/09/19 10:33:20;;;;;;;;;;;18.60;99.90;;;;;;5039789;28;19908;-68
2023/09/19 10:49:27;;;;;;;1999.90;999.90;;;19.00;99.90;;;;;;5131401;27;20431;-69
2023/09/19 10:51:59;;;;;;;1999.90;999.90;;;19.00;99.90;;;;;;5100850;28;20024;-75
2023/09/19 10:54:34;;;;;;;1999.90;999.90;;;19.20;99.90;;;;;;5107717;28;20047;-70
2023/09/19 10:57:00;;;;;;;1999.90;999.90;;;19.20;99.90;;;;;;5098198;28;20409;-70
2023/09/19 10:59:34;;;;;;;1999.90;999.90;;;19.20;99.90;;;;;;5105428;28;20048;-69
2023/09/19 11:02:15;;;;;;;1999.90;999.90;;;19.20;99.90;;;;;;5100362;28;21474;-70
2023/09/19 11:04:42;;;;;;;1999.90;999.90;;;19.10;99.90;;;;;;5095300;28;20477;-78
2023/09/19 11:07:10;;;;;;;1999.90;999.90;;;19.00;99.90;;;;;;5098930;28;20084;-81
2023/09/19 11:09:45;;;;;;;1999.90;999.90;;;19.00;99.90;;;;;;5093354;28;20030;-69
2023/09/19 11:12:12;;;;;;;1999.90;999.90;;;18.90;99.90;;;;;;5090560;28;20318;-70
2023/09/19 11:14:40;;;;;;;1999.90;999.90;;;18.80;99.90;;;;;;5095786;28;20031;-80
2023/09/19 11:17:20;;;;;;;1999.90;999.90;;;18.80;99.90;;;;;;5106896;28;20092;-69
2023/09/19 11:22:56;;;;;;;1999.90;999.90;;;18.70;99.90;;;;;;5098987;28;20024;-69
2023/09/19 11:25:32;;;;;;;1999.90;999.90;;;18.70;99.90;;;;;;5095772;28;20036;-77
2023/09/19 11:28:08;;;;;;;1999.90;999.90;;;18.80;99.90;;;;;;5091301;28;20137;-68
2023/09/19 11:30:36;;;;;;;1999.90;999.90;;;18.90;99.90;;;;;;5091307;28;20265;-68
2023/09/19 11:33:28;;;;;;;1999.90;999.90;;;18.90;99.90;;;;;;5097204;28;20118;-69
2023/09/19 11:36:16;;;;;;;1999.90;999.90;;;18.90;99.90;;;;;;5091201;28;20108;-78
2023/09/19 11:43:50;;;;;;;1999.90;999.90;;;18.80;99.90;;;;;;5091833;28;20086;-69
2023/09/19 11:46:21;;;;;;;1999.90;999.90;;;18.80;99.90;;;;;;5101531;28;20059;-68
2023/09/19 11:48:49;;;;;;;1999.90;999.90;;;18.80;99.90;;;;;;5101625;28;20044;-70
2023/09/19 11:51:22;;;;;;;1999.90;999.90;;;18.80;99.90;;;;;;5095377;28;20032;-69
2023/09/19 11:53:48;;;;;;;1999.90;999.90;;;18.80;99.90;;;;;;5095591;28;20035;-66
2023/09/19 11:56:15;;;;;;;;;;;18.70;99.90;;;;;;5078244;28;20414;-68
2023/09/19 11:58:42;;;;;;;1999.90;999.90;;;18.50;99.90;;;;;;5087948;28;19920;-68
2023/09/19 12:01:14;;;;;;;1999.90;999.90;;;18.40;99.90;;;;;;5102863;28;20442;-67
2023/09/19 12:03:50;;;;;;;1999.90;999.90;;;18.40;99.90;;;;;;5083564;28;20016;-77
2023/09/19 12:06:16;;;;;;;1999.90;999.90;;;18.30;99.90;;;;;;5077555;28;20025;-67
2023/09/19 12:08:43;;;;;;;1999.90;999.90;;;18.30;99.90;;;;;;5091113;28;20434;-66
2023/09/19 12:11:16;;;;;;;;;;;18.30;99.90;;;;;;5080568;28;20036;-67
2023/09/19 12:13:46;;;;;;;1999.90;999.90;;;18.30;99.90;;;;;;5087208;28;20337;-68
2023/09/19 12:16:23;;;;;;;1999.90;999.90;;;18.30;99.90;;;;;;5094098;28;20054;-67
2023/09/19 12:18:50;;;;;;;1999.90;999.90;;;18.20;99.90;;;;;;5097618;28;20024;-79
2023/09/19 12:21:27;;;;;;;1999.90;999.90;;;18.20;99.90;;;;;;5080587;28;20016;-68
2023/09/19 12:24:04;;;;;;;1999.90;999.90;;;18.20;99.90;;;;;;5086447;28;20073;-76
2023/09/19 12:26:33;;;;;;;;;;;18.20;99.90;;;;;;5089261;28;20029;-66
2023/09/19 12:29:01;;;;;;;1999.90;999.90;;;18.20;99.90;;;;;;5077485;28;19927;-67
2023/09/19 12:31:27;;;;;;;1999.90;999.90;;;18.20;99.90;;;;;;5078171;28;20029;-77
2023/09/19 12:33:58;;;;;;;1999.90;999.90;;;18.20;99.90;;;;;;5079891;28;20032;-67
2023/09/19 12:36:30;;;;;;;1999.90;999.90;;;18.20;99.90;;;;;;5075725;28;20066;-67
2023/09/19 12:38:59;;;;;;;1999.90;999.90;;;18.20;99.90;;;;;;5076963;28;20155;-76
2023/09/19 12:41:25;;;;;;;1999.90;999.90;;;18.30;99.90;;;;;;5078822;28;20024;-69
2023/09/19 12:43:54;;;;;;;1999.90;999.90;;;18.40;99.90;;;;;;5083060;28;20111;-68
2023/09/19 12:46:26;;;;;;;1999.90;999.90;;;18.50;99.90;;;;;;5081328;28;20020;-76
2023/09/19 12:49:17;;;;;;;1999.90;999.90;;;18.60;99.90;;;;;;5080715;28;20044;-67
2023/09/19 12:51:43;;;;;;;1999.90;999.90;;;18.80;99.90;;;;;;5082485;28;20020;-70
2023/09/19 12:54:10;;;;;;;1999.90;999.90;;;18.80;99.90;;;;;;5077038;28;20073;-78
2023/09/19 12:56:47;;;;;;;1999.90;999.90;;;18.70;99.90;;;;;;5081222;28;20048;-67
2023/09/19 12:59:14;;;;;;;1999.90;999.90;;;18.60;99.90;;;;;;5091042;28;20024;-67
2023/09/19 13:01:43;;;;;;;1999.90;999.90;;;18.60;99.90;;;;;;5079547;28;20115;-68
2023/09/19 13:04:19;;;;;;;1999.90;999.90;;;18.60;99.90;;;;;;5083678;28;20020;-68
2023/09/19 13:06:51;;;;;;;1999.90;999.90;;;18.60;99.90;;;;;;5095749;28;20024;-69
2023/09/19 13:09:22;;;;;;;1999.90;999.90;;;18.60;99.90;;;;;;5078271;28;20024;-67
2023/09/19 13:11:49;;;;;;;1999.90;999.90;;;18.50;99.90;;;;;;5086585;28;20382;-67
2023/09/19 13:14:28;;;;;;;1999.90;999.90;;;18.60;99.90;;;;;;5098190;28;20030;-67
2023/09/19 13:17:03;;;;;;;1999.90;999.90;;;18.60;99.90;;;;;;5095026;28;20025;-69
2023/09/19 13:19:35;;;;;;;1999.90;999.90;;;18.60;99.90;;;;;;5085114;28;20011;-69
2023/09/19 13:22:01;;;;;;;1999.90;999.90;;;18.70;99.90;;;;;;5087413;28;20024;-67
2023/09/19 13:24:28;;;;;;;1999.90;999.90;;;18.70;99.90;;;;;;5091903;28;20067;-66
2023/09/19 13:26:54;;;;;;;1999.90;999.90;;;18.70;99.90;;;;;;5096012;28;20366;-68
2023/09/19 13:29:20;;;;;;;1999.90;999.90;;;18.70;99.90;;;;;;5086507;28;20103;-74
2023/09/19 13:31:54;;;;;;;1999.90;999.90;;;18.60;99.90;;;;;;5085310;28;20038;-68
2023/09/19 13:34:20;;;;;;;1999.90;999.90;;;18.60;99.90;;;;;;5094456;28;20113;-66
2023/09/19 13:36:48;;;;;;;1999.90;999.90;;;18.50;99.90;;;;;;5088382;28;20055;-67
2023/09/19 13:39:16;;;;;;;1999.90;999.90;;;18.50;99.90;;;;;;5089008;28;20327;-68
2023/09/19 13:41:43;;;;;;;1999.90;999.90;;;18.50;99.90;;;;;;5090511;28;20027;-77
2023/09/19 13:44:10;;;;;;;1999.90;999.90;;;18.40;99.90;;;;;;5090482;28;20031;-67
2023/09/19 13:46:37;;;;;;;1999.90;999.90;;;18.40;99.90;;;;;;5090335;28;20019;-79
2023/09/19 13:49:05;;;;;;;1999.90;999.90;;;18.30;99.90;;;;;;5094493;28;20047;-68
2023/09/19 13:51:32;;;;;;;1999.90;999.90;;;18.30;99.90;;;;;;5104623;28;20874;-77
2023/09/19 13:53:57;;;;;;;1999.90;999.90;;;18.20;99.90;;;;;;5085301;28;20403;-77
2023/09/19 13:56:24;;;;;;;1999.90;999.90;;;18.20;99.90;;;;;;5093045;28;20031;-69
2023/09/19 13:58:50;;;;;;;;;;;18.10;99.90;;;;;;5099437;28;20040;-66
2023/09/19 14:01:15;;;;;;;1999.90;999.90;;;18.00;99.90;;;;;;5095198;28;19904;-66
2023/09/19 14:03:46;;;;;;;1999.90;999.90;;;18.00;99.90;;;;;;5099599;28;20028;-68
2023/09/19 14:06:13;;;;;;;1999.90;999.90;;;18.00;99.90;;;;;;5098474;28;20337;-67
2023/09/19 14:08:39;;;;;;;1999.90;999.90;;;18.00;99.90;;;;;;5103187;28;20033;-77
2023/09/19 14:11:09;;;;;;;1999.90;999.90;;;18.00;99.90;;;;;;5095894;28;20036;-66